createdAt,value
2018-08-30T00:02:27.298Z,83.63
2018-08-30T00:04:56.421Z,81.75
2018-08-30T00:07:25.552Z,79.18
2018-08-30T00:09:54.661Z,78.63
2018-08-30T00:12:23.786Z,78.87
2018-08-30T00:14:52.887Z,78.49
2018-08-30T00:17:22.010Z,79.56
2018-08-30T00:19:51.941Z,81.37
2018-08-30T00:22:21.065Z,82.92
2018-08-30T00:24:50.182Z,89.03
2018-08-30T00:27:19.294Z,92.96
2018-08-30T00:29:48.454Z,93.12
2018-08-30T00:32:17.618Z,94.44
2018-08-30T00:34:46.733Z,94.96
2018-08-30T00:37:15.853Z,94.28
2018-08-30T00:39:44.955Z,94.36
2018-08-30T00:42:15.174Z,95.34
2018-08-30T00:44:44.351Z,94.30
2018-08-30T00:47:19.246Z,94.55
2018-08-30T00:49:48.438Z,94.89
2018-08-30T00:52:17.705Z,95.40
2018-08-30T00:54:46.950Z,95.72
2018-08-30T00:57:17.346Z,94.92
2018-08-30T00:59:46.506Z,91.93
2018-08-30T01:02:15.630Z,92.54
2018-08-30T01:04:44.874Z,91.56
2018-08-30T01:07:14.004Z,91.22
2018-08-30T01:09:43.078Z,91.79
2018-08-30T01:12:12.486Z,90.82
2018-08-30T01:14:41.765Z,90.28
2018-08-30T01:17:11.245Z,89.23
2018-08-30T01:19:40.383Z,88.05
2018-08-30T01:22:09.514Z,88.96
2018-08-30T01:24:38.665Z,88.88
2018-08-30T01:27:07.814Z,88.55
2018-08-30T01:29:37.636Z,88.77
2018-08-30T01:32:07.395Z,88.63
2018-08-30T01:34:36.557Z,87.89
2018-08-30T01:37:05.882Z,89.71
2018-08-30T01:39:35.086Z,89.44
2018-08-30T01:42:04.811Z,89.15
2018-08-30T01:44:33.929Z,89.76
2018-08-30T01:47:03.549Z,89.37
2018-08-30T01:49:32.666Z,89.22
2018-08-30T01:52:01.866Z,89.25
2018-08-30T01:54:30.997Z,88.56
2018-08-30T01:57:00.419Z,88.89
2018-08-30T01:59:29.490Z,89.73
2018-08-30T02:01:58.596Z,88.94
2018-08-30T02:04:28.426Z,89.33
2018-08-30T02:06:57.638Z,89.39
2018-08-30T02:09:26.749Z,88.35
2018-08-30T02:11:55.830Z,87.74
2018-08-30T02:14:24.920Z,88.11
2018-08-30T02:16:54.018Z,87.87
2018-08-30T02:19:23.452Z,85.65
2018-08-30T02:21:52.521Z,85.75
2018-08-30T02:24:22.271Z,83.72
2018-08-30T02:26:51.778Z,83.50
2018-08-30T02:29:20.863Z,83.07
2018-08-30T02:31:49.990Z,83.51
2018-08-30T02:34:19.146Z,83.44
2018-08-30T02:36:48.315Z,84.52
2018-08-30T02:39:18.334Z,85.27
2018-08-30T02:41:47.793Z,84.96
2018-08-30T02:44:16.997Z,85.60
2018-08-30T02:46:46.148Z,86.01
2018-08-30T02:49:15.266Z,85.56
2018-08-30T02:51:44.385Z,85.35
2018-08-30T02:54:13.778Z,85.68
2018-08-30T02:56:43.090Z,86.17
2018-08-30T02:59:12.617Z,86.04
2018-08-30T03:01:41.705Z,86.16
2018-08-30T03:04:10.834Z,86.56
2018-08-30T03:06:39.945Z,86.39
2018-08-30T03:09:10.097Z,86.93
2018-08-30T03:11:39.224Z,87.05
2018-08-30T03:14:08.618Z,87.13
2018-08-30T03:16:37.710Z,87.40
2018-08-30T03:19:06.826Z,87.19
2018-08-30T03:21:36.101Z,86.88
2018-08-30T03:24:05.254Z,86.43
2018-08-30T03:26:34.425Z,86.01
2018-08-30T03:29:03.538Z,86.43
2018-08-30T03:31:32.648Z,85.14
2018-08-30T03:34:01.736Z,85.85
2018-08-30T03:36:30.830Z,85.38
2018-08-30T03:39:00.441Z,85.99
2018-08-30T03:41:30.305Z,86.46
2018-08-30T03:43:59.477Z,85.76
2018-08-30T03:46:28.843Z,86.13
2018-08-30T03:48:58.115Z,86.34
2018-08-30T03:51:27.349Z,86.23
2018-08-30T03:53:56.618Z,86.55
2018-08-30T03:56:25.930Z,85.93
2018-08-30T03:58:55.363Z,86.10
2018-08-30T04:01:24.485Z,85.91
2018-08-30T04:03:53.565Z,85.50
2018-08-30T04:06:22.694Z,85.54
2018-08-30T04:08:52.206Z,85.72
2018-08-30T04:11:21.325Z,85.07
2018-08-30T04:13:50.437Z,85.29
2018-08-30T04:16:19.541Z,85.36
2018-08-30T04:18:52.757Z,84.67
2018-08-30T04:21:21.890Z,85.07
2018-08-30T04:23:51.014Z,84.88
2018-08-30T04:26:20.824Z,84.98
2018-08-30T04:28:50.010Z,85.63
2018-08-30T04:31:19.156Z,85.52
2018-08-30T04:33:48.257Z,85.80
2018-08-30T04:36:17.382Z,85.85
2018-08-30T04:38:47.163Z,85.58
2018-08-30T04:41:17.173Z,85.56
2018-08-30T04:43:47.038Z,85.44
2018-08-30T04:46:16.725Z,85.30
2018-08-30T04:48:46.065Z,85.15
2018-08-30T04:51:15.401Z,84.75
2018-08-30T04:53:44.561Z,84.69
2018-08-30T04:56:13.661Z,84.10
2018-08-30T04:58:42.762Z,83.88
2018-08-30T05:01:12.389Z,83.58
2018-08-30T05:03:41.519Z,83.29
2018-08-30T05:06:10.587Z,83.75
2018-08-30T05:08:40.117Z,82.94
2018-08-30T05:11:09.801Z,82.70
2018-08-30T05:13:39.410Z,82.73
2018-08-30T05:16:08.502Z,82.39
2018-08-30T05:18:37.595Z,81.89
2018-08-30T05:21:06.721Z,82.16
2018-08-30T05:23:35.798Z,82.62
2018-08-30T05:26:05.782Z,82.53
2018-08-30T05:28:34.896Z,81.68
2018-08-30T05:31:04.002Z,81.80
2018-08-30T05:33:33.137Z,81.69
2018-08-30T05:36:02.911Z,80.38
2018-08-30T05:38:32.047Z,80.29
2018-08-30T05:41:02.718Z,79.57
2018-08-30T05:43:31.849Z,79.87
2018-08-30T05:46:01.405Z,79.51
2018-08-30T05:48:30.570Z,79.24
2018-08-30T05:50:59.718Z,77.78
2018-08-30T05:53:28.837Z,77.50
2018-08-30T05:55:57.965Z,77.09
2018-08-30T05:58:27.142Z,75.03
2018-08-30T06:00:56.278Z,75.17
2018-08-30T06:03:25.398Z,74.50
2018-08-30T06:05:55.379Z,76.46
2018-08-30T06:08:24.554Z,77.34
2018-08-30T06:10:53.626Z,78.57
2018-08-30T06:13:22.783Z,79.57
2018-08-30T06:15:51.874Z,80.51
2018-08-30T06:18:21.717Z,80.44
2018-08-30T06:20:50.893Z,81.15
2018-08-30T06:23:20.028Z,80.55
2018-08-30T06:25:49.141Z,81.38
2018-08-30T06:28:18.314Z,82.18
2018-08-30T06:30:47.414Z,81.88
2018-08-30T06:33:16.505Z,81.89
2018-08-30T06:35:45.643Z,81.86
2018-08-30T06:38:16.265Z,81.35
2018-08-30T06:40:45.410Z,79.49
2018-08-30T06:43:15.255Z,78.51
2018-08-30T06:45:48.027Z,76.89
2018-08-30T06:48:17.488Z,77.38
2018-08-30T06:50:46.875Z,78.38
2018-08-30T06:53:16.288Z,77.31
2018-08-30T06:55:45.410Z,78.87
2018-08-30T06:58:14.535Z,77.67
2018-08-30T07:00:43.650Z,77.33
2018-08-30T07:03:12.739Z,77.37
2018-08-30T07:05:42.041Z,78.21
2018-08-30T07:08:11.237Z,78.59
2018-08-30T07:10:40.463Z,78.08
2018-08-30T07:13:09.585Z,78.85
2018-08-30T07:15:38.719Z,79.39
2018-08-30T07:18:07.841Z,80.35
2018-08-30T07:20:37.731Z,79.91
2018-08-30T07:23:06.867Z,82.43
2018-08-30T07:25:36.112Z,87.53
2018-08-30T07:28:05.473Z,89.98
2018-08-30T07:30:34.637Z,90.30
2018-08-30T07:33:03.747Z,90.15
2018-08-30T07:35:32.883Z,86.63
2018-08-30T07:38:02.782Z,83.45
2018-08-30T07:40:31.877Z,80.75
2018-08-30T07:43:01.130Z,80.03
2018-08-30T07:45:31.510Z,77.12
2018-08-30T07:48:00.678Z,74.35
2018-08-30T07:50:29.853Z,74.03
2018-08-30T07:52:59.002Z,76.43
2018-08-30T07:55:28.461Z,75.48
2018-08-30T07:57:57.671Z,75.33
2018-08-30T08:00:26.789Z,73.13
2018-08-30T08:02:56.094Z,73.08
2018-08-30T08:05:25.218Z,73.52
2018-08-30T08:07:54.322Z,73.61
2018-08-30T08:10:23.485Z,71.43
2018-08-30T08:12:52.621Z,70.14
2018-08-30T08:15:21.731Z,69.30
2018-08-30T08:17:51.487Z,69.82
2018-08-30T08:20:20.610Z,70.64
2018-08-30T08:22:49.770Z,70.51
2018-08-30T08:25:18.966Z,69.77
2018-08-30T08:27:48.105Z,71.26
2018-08-30T08:30:17.245Z,70.29
2018-08-30T08:32:46.386Z,67.19
2018-08-30T08:35:15.490Z,66.35
2018-08-30T08:37:44.794Z,66.27
2018-08-30T08:40:14.109Z,68.92
2018-08-30T08:42:43.325Z,69.41
2018-08-30T08:45:12.704Z,70.89
2018-08-30T08:47:42.635Z,70.05
2018-08-30T08:50:11.719Z,68.37
2018-08-30T08:52:40.818Z,66.83
2018-08-30T08:55:09.929Z,66.98
2018-08-30T08:57:39.060Z,65.80
2018-08-30T09:00:08.173Z,64.43
2018-08-30T09:02:37.317Z,60.74
2018-08-30T09:05:07.647Z,59.73
2018-08-30T09:07:36.791Z,59.00
2018-08-30T09:10:06.896Z,58.76
2018-08-30T09:12:36.062Z,60.23
2018-08-30T09:15:05.281Z,62.16
2018-08-30T09:17:34.573Z,63.45
2018-08-30T09:20:03.754Z,64.12
2018-08-30T09:22:32.886Z,65.07
2018-08-30T09:25:02.823Z,61.50
2018-08-30T09:27:31.917Z,57.65
2018-08-30T09:30:01.012Z,57.55
2018-08-30T09:32:30.149Z,55.51
2018-08-30T09:34:59.453Z,55.47
2018-08-30T09:37:28.576Z,54.56
2018-08-30T09:39:57.714Z,53.91
2018-08-30T09:42:26.838Z,52.57
2018-08-30T09:44:56.009Z,55.76
2018-08-30T09:47:25.638Z,56.25
2018-08-30T09:49:55.777Z,55.62
2018-08-30T09:52:24.981Z,56.08
2018-08-30T09:54:54.141Z,54.15
2018-08-30T09:57:23.467Z,52.48
2018-08-30T09:59:52.845Z,51.94
2018-08-30T10:02:27.485Z,52.90
2018-08-30T10:04:56.824Z,53.28
2018-08-30T10:07:25.915Z,50.25
2018-08-30T10:09:55.009Z,46.89
2018-08-30T10:12:24.114Z,47.67
2018-08-30T10:14:53.276Z,48.93
2018-08-30T10:17:22.417Z,46.11
2018-08-30T10:19:52.082Z,46.72
2018-08-30T10:22:21.205Z,44.91
2018-08-30T10:24:50.362Z,51.14
2018-08-30T10:27:19.525Z,50.21
2018-08-30T10:29:48.630Z,46.37
2018-08-30T10:32:17.806Z,42.20
2018-08-30T10:34:47.628Z,43.33
2018-08-30T10:37:16.762Z,47.03
2018-08-30T10:39:45.906Z,40.68
2018-08-30T10:42:15.049Z,34.64
2018-08-30T10:44:44.750Z,38.94
2018-08-30T10:47:13.917Z,46.21
2018-08-30T10:49:43.909Z,47.03
2018-08-30T10:52:12.901Z,48.91
2018-08-30T10:54:42.096Z,50.55
2018-08-30T10:57:11.189Z,50.92
2018-08-30T10:59:40.302Z,43.20
2018-08-30T11:02:09.693Z,38.02
2018-08-30T11:04:38.916Z,35.88
2018-08-30T11:07:08.037Z,40.25
2018-08-30T11:09:37.140Z,44.38
2018-08-30T11:12:06.278Z,46.76
2018-08-30T11:14:35.366Z,41.12
2018-08-30T11:17:04.493Z,35.66
2018-08-30T11:19:33.827Z,34.05
2018-08-30T11:22:02.877Z,31.58
2018-08-30T11:24:31.988Z,36.86
2018-08-30T11:27:01.145Z,41.39
2018-08-30T11:29:30.226Z,46.15
2018-08-30T11:31:59.361Z,46.77
2018-08-30T11:34:29.190Z,47.57
2018-08-30T11:36:58.338Z,47.40
2018-08-30T11:39:27.441Z,39.23
2018-08-30T11:41:56.563Z,33.70
2018-08-30T11:44:25.690Z,34.74
2018-08-30T11:46:54.861Z,30.41
2018-08-30T11:49:24.323Z,29.41
2018-08-30T11:51:53.462Z,31.86
2018-08-30T11:54:22.795Z,33.55
2018-08-30T11:56:51.857Z,32.45
2018-08-30T11:59:22.206Z,32.04
2018-08-30T12:01:51.340Z,35.67
2018-08-30T12:04:20.534Z,34.36
2018-08-30T12:06:49.693Z,34.83
2018-08-30T12:09:18.796Z,39.02
2018-08-30T12:11:47.910Z,38.14
2018-08-30T12:14:17.026Z,40.19
2018-08-30T12:16:46.276Z,36.31
2018-08-30T12:19:15.387Z,33.30
2018-08-30T12:21:44.523Z,34.83
2018-08-30T12:24:13.648Z,39.37
2018-08-30T12:26:42.744Z,42.86
2018-08-30T12:29:11.916Z,42.98
2018-08-30T12:31:41.072Z,44.30
2018-08-30T12:34:10.241Z,46.30
2018-08-30T12:36:39.662Z,42.13
2018-08-30T12:39:11.295Z,36.59
2018-08-30T12:41:40.416Z,42.00
2018-08-30T12:44:09.624Z,45.56
2018-08-30T12:46:38.748Z,47.61
2018-08-30T12:49:07.860Z,49.27
2018-08-30T12:51:37.405Z,48.40
2018-08-30T12:54:06.603Z,47.22
2018-08-30T12:56:36.077Z,46.89
2018-08-30T12:59:10.379Z,47.99
2018-08-30T13:01:39.603Z,46.90
2018-08-30T13:04:09.054Z,45.58
2018-08-30T13:06:42.270Z,44.97
2018-08-30T13:09:11.713Z,41.35
2018-08-30T13:11:40.637Z,38.19
2018-08-30T13:14:09.703Z,34.64
2018-08-30T13:16:38.748Z,33.05
2018-08-30T13:19:08.774Z,33.87
2018-08-30T13:21:38.645Z,33.11
2018-08-30T13:24:07.764Z,34.13
2018-08-30T13:26:36.843Z,31.09
2018-08-30T13:29:06.010Z,28.75
2018-08-30T13:31:35.122Z,30.34
2018-08-30T13:34:04.660Z,30.34
2018-08-30T13:36:34.093Z,29.38
2018-08-30T13:39:03.158Z,30.61
2018-08-30T13:41:32.453Z,29.85
2018-08-30T13:44:01.414Z,33.55
2018-08-30T13:46:30.464Z,38.69
2018-08-30T13:49:00.294Z,37.24
2018-08-30T13:51:30.416Z,35.57
2018-08-30T13:53:59.533Z,30.16
2018-08-30T13:56:28.911Z,30.78
2018-08-30T13:58:58.034Z,34.59
2018-08-30T14:01:27.574Z,36.05
2018-08-30T14:03:56.080Z,36.28
2018-08-30T14:06:25.328Z,33.50
2018-08-30T14:08:54.517Z,31.28
2018-08-30T14:11:23.731Z,32.09
2018-08-30T14:13:52.845Z,37.96
2018-08-30T14:16:21.698Z,40.66
2018-08-30T14:18:51.201Z,34.53
2018-08-30T14:21:20.302Z,33.88
2018-08-30T14:23:49.410Z,32.39
2018-08-30T14:26:18.558Z,36.92
2018-08-30T14:28:47.733Z,37.86
2018-08-30T14:31:16.850Z,38.91
2018-08-30T14:33:45.967Z,40.72
2018-08-30T14:36:15.086Z,43.94
2018-08-30T14:38:44.296Z,42.34
2018-08-30T14:41:13.653Z,40.90
2018-08-30T14:43:42.605Z,35.43
2018-08-30T14:46:11.689Z,35.13
2018-08-30T14:48:40.839Z,35.13
2018-08-30T14:51:10.014Z,35.64
2018-08-30T14:53:39.318Z,34.27
2018-08-30T14:56:08.034Z,37.26
2018-08-30T14:58:37.198Z,35.00
2018-08-30T15:01:06.426Z,33.53
2018-08-30T15:03:35.590Z,33.64
2018-08-30T15:06:04.785Z,31.62
2018-08-30T15:08:33.963Z,31.99
2018-08-30T15:11:03.743Z,34.50
2018-08-30T15:13:32.844Z,38.17
2018-08-30T15:16:01.982Z,39.09
2018-08-30T15:18:31.078Z,42.73
2018-08-30T15:21:00.194Z,43.46
2018-08-30T15:23:29.470Z,40.29
2018-08-30T15:25:58.573Z,37.43
2018-08-30T15:28:27.677Z,34.53
2018-08-30T15:30:56.837Z,36.74
2018-08-30T15:33:25.953Z,40.01
2018-08-30T15:35:55.277Z,41.29
2018-08-30T15:38:24.454Z,42.28
2018-08-30T15:40:54.134Z,44.66
2018-08-30T15:43:23.271Z,46.69
2018-08-30T15:45:52.413Z,46.89
2018-08-30T15:48:21.654Z,46.08
2018-08-30T15:50:50.754Z,43.97
2018-08-30T15:53:19.998Z,42.44
2018-08-30T15:55:49.558Z,41.39
2018-08-30T15:58:18.727Z,44.05
2018-08-30T16:00:47.871Z,46.87
2018-08-30T16:03:16.997Z,48.01
2018-08-30T16:05:46.130Z,49.32
2018-08-30T16:08:15.626Z,50.85
2018-08-30T16:10:44.738Z,50.25
2018-08-30T16:13:13.936Z,51.48
2018-08-30T16:15:43.007Z,51.27
2018-08-30T16:18:12.293Z,51.16
2018-08-30T16:20:41.256Z,51.15
2018-08-30T16:23:29.623Z,51.47
2018-08-30T16:25:58.702Z,51.37
2018-08-30T16:28:28.830Z,51.26
2018-08-30T16:30:58.336Z,51.80
2018-08-30T16:33:27.834Z,51.79
2018-08-30T16:35:56.952Z,53.02
2018-08-30T16:38:26.179Z,55.50
2018-08-30T16:40:55.698Z,56.19
2018-08-30T16:43:24.983Z,57.75
2018-08-30T16:45:53.941Z,57.76
2018-08-30T16:48:23.059Z,58.63
2018-08-30T16:50:52.223Z,59.22
2018-08-30T16:53:21.413Z,60.05
2018-08-30T16:55:50.575Z,60.54
2018-08-30T16:58:19.859Z,60.21
2018-08-30T17:00:49.076Z,61.08
2018-08-30T17:03:18.297Z,61.29
2018-08-30T17:05:48.138Z,62.16
2018-08-30T17:08:17.247Z,62.19
2018-08-30T17:10:46.413Z,62.87
2018-08-30T17:13:15.609Z,63.15
2018-08-30T17:15:44.770Z,63.62
2018-08-30T17:18:13.877Z,64.42
2018-08-30T17:20:46.825Z,65.31
2018-08-30T17:23:15.574Z,65.56
2018-08-30T17:25:45.031Z,65.82
2018-08-30T17:28:14.213Z,66.34
2018-08-30T17:30:43.781Z,67.01
2018-08-30T17:33:13.084Z,67.09
2018-08-30T17:35:42.216Z,67.18
2018-08-30T17:38:11.516Z,67.35
2018-08-30T17:40:40.618Z,68.21
2018-08-30T17:43:09.825Z,68.55
2018-08-30T17:45:38.878Z,69.23
2018-08-30T17:48:08.006Z,69.59
2018-08-30T17:50:37.889Z,69.46
2018-08-30T17:53:06.917Z,69.76
2018-08-30T17:55:36.010Z,69.72
2018-08-30T17:58:05.488Z,69.83
2018-08-30T18:00:35.061Z,70.17
2018-08-30T18:03:04.611Z,70.01
2018-08-30T18:05:33.664Z,70.19
2018-08-30T18:08:03.626Z,70.08
2018-08-30T18:10:39.461Z,70.23
2018-08-30T18:13:08.617Z,71.53
2018-08-30T18:15:37.781Z,71.45
2018-08-30T18:18:07.000Z,71.92
2018-08-30T18:20:36.029Z,72.65
2018-08-30T18:23:05.260Z,72.37
2018-08-30T18:25:34.469Z,72.02
2018-08-30T18:28:04.069Z,72.76
2018-08-30T18:30:33.195Z,72.43
2018-08-30T18:33:02.314Z,72.16
2018-08-30T18:35:31.445Z,71.96
2018-08-30T18:38:00.545Z,72.09
2018-08-30T18:40:29.657Z,72.08
2018-08-30T18:42:58.788Z,71.98
2018-08-30T18:45:27.951Z,72.78
2018-08-30T18:47:58.159Z,73.13
2018-08-30T18:50:27.266Z,72.55
2018-08-30T18:52:56.595Z,73.41
2018-08-30T18:55:25.731Z,72.98
2018-08-30T18:57:54.844Z,73.88
2018-08-30T19:00:24.813Z,73.19
2018-08-30T19:02:54.659Z,73.39
2018-08-30T19:05:23.769Z,73.26
2018-08-30T19:07:52.941Z,73.69
2018-08-30T19:10:22.064Z,73.44
2018-08-30T19:12:51.190Z,73.60
2018-08-30T19:15:25.664Z,73.29
2018-08-30T19:18:00.202Z,73.83
2018-08-30T19:20:29.382Z,73.62
2018-08-30T19:22:58.470Z,73.99
2018-08-30T19:25:29.502Z,74.05
2018-08-30T19:27:58.638Z,74.36
2018-08-30T19:30:30.050Z,74.72
2018-08-30T19:33:00.085Z,74.58
2018-08-30T19:35:34.442Z,75.04
2018-08-30T19:38:03.626Z,75.60
2018-08-30T19:40:38.061Z,75.78
2018-08-30T19:43:07.234Z,75.66
2018-08-30T19:45:36.329Z,75.23
2018-08-30T19:48:05.477Z,75.41
2018-08-30T19:50:34.596Z,75.90
2018-08-30T19:53:03.715Z,75.17
2018-08-30T19:55:32.829Z,75.20
2018-08-30T19:58:02.645Z,75.54
2018-08-30T20:00:31.819Z,76.20
2018-08-30T20:03:01.571Z,76.18
2018-08-30T20:05:30.840Z,76.55
2018-08-30T20:08:00.319Z,77.08
2018-08-30T20:10:29.231Z,76.91
2018-08-30T20:12:58.395Z,76.67
2018-08-30T20:15:27.558Z,76.85
2018-08-30T20:17:56.743Z,77.00
2018-08-30T20:20:25.878Z,77.83
2018-08-30T20:22:55.073Z,77.29
2018-08-30T20:25:24.248Z,78.04
2018-08-30T20:27:53.441Z,77.81
2018-08-30T20:30:22.554Z,78.83
2018-08-30T20:32:51.667Z,79.20
2018-08-30T20:35:20.773Z,80.25
2018-08-30T20:37:50.661Z,80.84
2018-08-30T20:40:19.878Z,81.24
2018-08-30T20:42:48.990Z,81.79
2018-08-30T20:45:18.537Z,81.41
2018-08-30T20:47:47.722Z,81.73
2018-08-30T20:50:16.866Z,81.91
2018-08-30T20:52:45.982Z,82.18
2018-08-30T20:55:15.128Z,82.03
2018-08-30T20:57:44.238Z,81.14
2018-08-30T21:00:13.411Z,81.11
2018-08-30T21:02:42.514Z,80.98
2018-08-30T21:05:13.052Z,80.51
2018-08-30T21:07:42.189Z,80.95
2018-08-30T21:10:11.282Z,81.13
2018-08-30T21:12:40.439Z,81.22
2018-08-30T21:15:09.631Z,80.57
2018-08-30T21:17:38.910Z,80.92
2018-08-30T21:20:08.762Z,81.19
2018-08-30T21:22:37.945Z,80.85
2018-08-30T21:25:07.341Z,80.82
2018-08-30T21:27:36.556Z,80.95
2018-08-30T21:30:06.494Z,80.59
2018-08-30T21:32:35.675Z,80.95
2018-08-30T21:35:04.842Z,80.38
2018-08-30T21:37:33.990Z,80.64
2018-08-30T21:40:03.147Z,80.62
2018-08-30T21:42:32.254Z,81.06
2018-08-30T21:45:01.425Z,80.36
2018-08-30T21:47:30.524Z,79.69
2018-08-30T21:50:00.102Z,79.50
2018-08-30T21:52:29.421Z,79.73
2018-08-30T21:54:58.559Z,79.96
2018-08-30T21:57:27.663Z,79.74
2018-08-30T21:59:56.854Z,80.43
2018-08-30T22:02:26.082Z,80.60
2018-08-30T22:04:55.497Z,80.94
2018-08-30T22:07:24.798Z,80.39
2018-08-30T22:09:53.941Z,80.58
2018-08-30T22:12:23.021Z,81.32
2018-08-30T22:14:52.119Z,81.46
2018-08-30T22:17:21.237Z,81.71
2018-08-30T22:19:50.375Z,82.26
2018-08-30T22:22:19.485Z,82.74
2018-08-30T22:24:48.573Z,82.89
2018-08-30T22:27:17.733Z,82.87
2018-08-30T22:29:47.545Z,83.24
2018-08-30T22:32:16.675Z,83.39
2018-08-30T22:34:45.866Z,83.52
2018-08-30T22:37:15.614Z,82.90
2018-08-30T22:39:44.750Z,82.90
2018-08-30T22:42:13.881Z,82.67
2018-08-30T22:44:43.403Z,82.97
2018-08-30T22:47:12.756Z,82.24
2018-08-30T22:49:41.939Z,82.07
2018-08-30T22:52:11.085Z,82.13
2018-08-30T22:54:40.217Z,80.80
2018-08-30T22:57:09.357Z,81.81
2018-08-30T22:59:38.505Z,81.70
2018-08-30T23:02:07.638Z,80.96
2018-08-30T23:04:37.400Z,81.26
2018-08-30T23:07:07.328Z,81.41
2018-08-30T23:09:36.649Z,80.97
2018-08-30T23:12:06.087Z,79.89
2018-08-30T23:14:35.218Z,79.38
2018-08-30T23:17:04.454Z,79.63
2018-08-30T23:19:33.794Z,79.65
2018-08-30T23:22:02.916Z,80.10
2018-08-30T23:24:32.026Z,79.60
2018-08-30T23:27:01.157Z,78.31
2018-08-30T23:29:30.278Z,78.72
2018-08-30T23:31:59.409Z,78.12
2018-08-30T23:34:28.560Z,78.19
2018-08-30T23:36:57.766Z,78.18
2018-08-30T23:39:27.060Z,78.48
2018-08-30T23:41:56.257Z,78.91
2018-08-30T23:44:26.170Z,78.59
2018-08-30T23:46:55.289Z,78.52
2018-08-30T23:49:24.422Z,78.73
2018-08-30T23:51:54.338Z,78.91
2018-08-30T23:54:23.466Z,78.65
2018-08-30T23:56:52.705Z,78.71
2018-08-30T23:59:39.534Z,78.89
